createdAt,value
2023-03-05T00:01:16.355Z,83.88
2023-03-05T00:06:21.580Z,83.90
2023-03-05T00:11:28.089Z,84.06
2023-03-05T00:16:30.460Z,84.03
2023-03-05T00:21:36.363Z,84.05
2023-03-05T00:26:39.190Z,83.99
2023-03-05T00:31:44.892Z,84.23
2023-03-05T00:36:51.389Z,84.32
2023-03-05T00:42:14.046Z,84.35
2023-03-05T00:47:18.455Z,84.42
2023-03-05T00:52:22.138Z,84.01
2023-03-05T00:57:24.349Z,84.24
2023-03-05T01:02:26.941Z,84.50
2023-03-05T01:07:29.166Z,84.66
2023-03-05T01:12:31.361Z,84.55
2023-03-05T01:17:33.549Z,84.18
2023-03-05T01:22:36.004Z,83.37
2023-03-05T01:27:38.156Z,82.95
2023-03-05T01:32:40.258Z,82.59
2023-03-05T01:37:42.925Z,82.87
2023-03-05T01:42:55.599Z,82.53
2023-03-05T01:47:58.591Z,81.65
2023-03-05T01:53:06.213Z,81.29
2023-03-05T01:58:13.793Z,81.19
2023-03-05T02:03:15.754Z,80.78
2023-03-05T02:08:20.559Z,80.35
2023-03-05T02:13:25.760Z,79.95
2023-03-05T02:18:28.828Z,79.71
2023-03-05T02:23:36.626Z,79.69
2023-03-05T02:28:43.295Z,79.57
2023-03-05T02:33:45.683Z,79.61
2023-03-05T02:38:48.610Z,79.88
2023-03-05T02:43:51.227Z,79.84
2023-03-05T02:48:53.594Z,80.22
2023-03-05T02:53:56.249Z,80.57
2023-03-05T02:59:01.678Z,80.38
2023-03-05T03:04:04.083Z,80.77
2023-03-05T03:09:06.175Z,81.02
2023-03-05T03:14:08.233Z,80.83
2023-03-05T03:19:10.401Z,80.60
2023-03-05T03:24:12.312Z,80.92
2023-03-05T03:29:14.386Z,80.60
2023-03-05T03:34:17.563Z,80.69
2023-03-05T03:39:20.607Z,80.44
2023-03-05T03:44:22.826Z,80.79
2023-03-05T03:49:26.307Z,80.59
2023-03-05T03:54:28.352Z,80.47
2023-03-05T03:59:30.301Z,80.79
2023-03-05T04:04:33.152Z,80.36
2023-03-05T04:09:35.001Z,80.66
2023-03-05T04:14:38.088Z,81.00
2023-03-05T04:19:40.854Z,81.43
2023-03-05T04:24:43.558Z,80.97
2023-03-05T04:29:45.665Z,81.18
2023-03-05T04:34:47.838Z,80.86
2023-03-05T04:39:50.079Z,80.12
2023-03-05T04:44:52.435Z,80.57
2023-03-05T04:49:54.505Z,81.17
2023-03-05T04:54:56.799Z,81.16
2023-03-05T04:59:58.882Z,81.18
2023-03-05T05:05:01.381Z,80.42
2023-03-05T05:10:04.729Z,80.29
2023-03-05T05:15:08.766Z,80.35
2023-03-05T05:20:12.916Z,80.19
2023-03-05T05:25:15.576Z,80.17
2023-03-05T05:30:17.800Z,80.13
2023-03-05T05:35:19.739Z,80.17
2023-03-05T05:40:24.893Z,80.20
2023-03-05T05:45:29.609Z,80.24
2023-03-05T05:50:38.726Z,80.19
2023-03-05T05:55:41.361Z,80.39
2023-03-05T06:00:44.633Z,80.79
2023-03-05T06:05:48.153Z,80.91
2023-03-05T06:10:55.234Z,80.72
2023-03-05T06:15:59.478Z,80.72
2023-03-05T06:21:06.986Z,80.95
2023-03-05T06:26:12.059Z,81.17
2023-03-05T06:31:17.446Z,81.28
2023-03-05T06:36:22.196Z,80.96
2023-03-05T06:41:28.124Z,80.99
2023-03-05T06:46:37.298Z,81.29
2023-03-05T06:51:40.524Z,81.60
2023-03-05T06:56:47.285Z,81.19
2023-03-05T07:01:49.571Z,81.46
2023-03-05T07:06:51.470Z,81.56
2023-03-05T07:11:53.446Z,81.71
2023-03-05T07:16:55.766Z,81.63
2023-03-05T07:21:57.742Z,81.67
2023-03-05T07:27:00.117Z,81.59
2023-03-05T07:32:03.087Z,81.42
2023-03-05T07:37:05.375Z,81.12
2023-03-05T07:42:07.581Z,81.63
2023-03-05T07:47:23.430Z,81.39
2023-03-05T07:52:25.629Z,81.34
2023-03-05T07:57:28.107Z,81.15
2023-03-05T08:02:30.530Z,80.95
2023-03-05T08:07:32.734Z,80.97
2023-03-05T08:12:35.619Z,80.72
2023-03-05T08:17:37.665Z,80.60
2023-03-05T08:22:39.652Z,80.52
2023-03-05T08:27:43.885Z,80.26
2023-03-05T08:32:46.322Z,80.29
2023-03-05T08:37:48.739Z,80.42
2023-03-05T08:42:52.490Z,80.47
2023-03-05T08:47:57.311Z,80.33
2023-03-05T08:53:00.609Z,80.37
2023-03-05T08:58:03.235Z,80.27
2023-03-05T09:03:05.699Z,80.33
2023-03-05T09:08:07.717Z,80.52
2023-03-05T09:13:10.410Z,80.92
2023-03-05T09:18:12.942Z,81.02
2023-03-05T09:23:15.618Z,81.15
2023-03-05T09:28:17.898Z,81.38
2023-03-05T09:33:22.033Z,81.56
2023-03-05T09:38:24.194Z,81.61
2023-03-05T09:43:38.548Z,81.71
2023-03-05T09:48:57.755Z,81.70
2023-03-05T09:54:05.756Z,81.56
2023-03-05T09:59:31.824Z,81.37
2023-03-05T10:04:48.341Z,81.33
2023-03-05T10:10:05.564Z,81.48
2023-03-05T10:15:21.150Z,81.44
2023-03-05T10:20:29.508Z,80.93
2023-03-05T10:25:34.629Z,80.13
2023-03-05T10:31:08.889Z,80.37
2023-03-05T10:36:49.625Z,80.39
2023-03-05T10:42:06.619Z,80.22
2023-03-05T10:47:21.738Z,80.09
2023-03-05T10:52:35.248Z,79.97
2023-03-05T10:57:37.332Z,79.08
2023-03-05T11:02:56.438Z,78.96
2023-03-05T11:07:58.939Z,78.83
2023-03-05T11:13:01.025Z,78.20
2023-03-05T11:18:16.938Z,77.78
2023-03-05T11:23:20.902Z,77.00
2023-03-05T11:28:33.609Z,76.51
2023-03-05T11:33:37.383Z,75.81
2023-03-05T11:38:51.482Z,75.97
2023-03-05T11:43:55.661Z,75.80
2023-03-05T11:49:02.527Z,75.70
2023-03-05T11:54:12.033Z,74.70
2023-03-05T11:59:23.497Z,74.37
2023-03-05T12:04:25.711Z,74.15
2023-03-05T12:09:49.557Z,74.41
2023-03-05T12:15:01.596Z,72.91
2023-03-05T12:20:36.697Z,72.02
2023-03-05T12:25:50.696Z,70.49
2023-03-05T12:30:54.674Z,70.20
2023-03-05T12:36:22.270Z,70.22
2023-03-05T12:41:25.753Z,69.05
2023-03-05T12:46:31.611Z,68.18
2023-03-05T12:51:38.840Z,68.45
2023-03-05T12:56:46.337Z,68.91
2023-03-05T13:02:00.627Z,68.65
2023-03-05T13:07:17.543Z,68.22
2023-03-05T13:12:20.126Z,68.10
2023-03-05T13:17:35.854Z,68.22
2023-03-05T13:22:39.030Z,69.02
2023-03-05T13:27:41.808Z,69.39
2023-03-05T13:32:44.122Z,69.33
2023-03-05T13:37:46.505Z,68.81
2023-03-05T13:42:48.790Z,68.88
2023-03-05T13:48:00.077Z,68.86
2023-03-05T13:53:23.058Z,69.53
2023-03-05T13:58:49.694Z,69.74
2023-03-05T14:03:54.586Z,70.23
2023-03-05T14:09:17.299Z,70.54
2023-03-05T14:14:22.053Z,70.50
2023-03-05T14:19:37.232Z,70.71
2023-03-05T14:24:39.345Z,70.66
2023-03-05T14:29:46.637Z,70.78
2023-03-05T14:34:55.122Z,71.02
2023-03-05T14:40:06.385Z,70.76
2023-03-05T14:45:16.498Z,70.99
2023-03-05T14:50:32.306Z,71.11
2023-03-05T14:55:35.328Z,71.21
2023-03-05T15:00:37.472Z,71.37
2023-03-05T15:05:40.643Z,71.44
2023-03-05T15:10:42.987Z,71.51
2023-03-05T15:15:47.106Z,71.49
2023-03-05T15:20:52.047Z,72.11
2023-03-05T15:25:54.050Z,71.91
2023-03-05T15:30:59.658Z,72.18
2023-03-05T15:36:02.579Z,72.14
2023-03-05T15:41:05.845Z,72.65
2023-03-05T15:46:08.286Z,73.38
2023-03-05T15:51:13.490Z,73.71
2023-03-05T15:56:19.442Z,74.09
2023-03-05T16:01:23.473Z,74.40
2023-03-05T16:06:26.325Z,74.80
2023-03-05T16:11:33.005Z,75.03
2023-03-05T16:16:36.318Z,75.13
2023-03-05T16:21:38.335Z,75.42
2023-03-05T16:26:41.446Z,75.56
2023-03-05T16:31:45.466Z,75.71
2023-03-05T16:36:50.914Z,75.70
2023-03-05T16:41:53.419Z,76.04
2023-03-05T16:46:56.510Z,76.08
2023-03-05T16:52:06.252Z,76.62
2023-03-05T16:57:18.301Z,77.04
2023-03-05T17:02:20.281Z,77.22
2023-03-05T17:07:22.142Z,77.71
2023-03-05T17:12:24.373Z,78.02
2023-03-05T17:17:26.231Z,78.02
2023-03-05T17:22:28.404Z,78.02
2023-03-05T17:27:30.264Z,78.15
2023-03-05T17:32:32.411Z,78.46
2023-03-05T17:37:34.320Z,78.29
2023-03-05T17:42:36.058Z,78.49
2023-03-05T17:47:37.930Z,78.98
2023-03-05T17:52:41.372Z,79.06
2023-03-05T17:57:45.601Z,79.15
2023-03-05T18:02:48.595Z,79.21
2023-03-05T18:07:51.427Z,79.21
2023-03-05T18:12:54.740Z,79.42
2023-03-05T18:17:56.785Z,79.53
2023-03-05T18:23:00.943Z,79.47
2023-03-05T18:28:08.768Z,79.45
2023-03-05T18:33:29.410Z,79.48
2023-03-05T18:38:32.204Z,79.68
2023-03-05T18:43:34.986Z,80.07
2023-03-05T18:48:36.997Z,80.10
2023-03-05T18:53:39.255Z,80.26
2023-03-05T18:58:41.549Z,80.18
2023-03-05T19:03:49.070Z,80.17
2023-03-05T19:09:08.674Z,80.29
2023-03-05T19:14:15.987Z,80.36
2023-03-05T19:19:20.498Z,80.48
2023-03-05T19:24:24.547Z,80.59
2023-03-05T19:29:32.776Z,80.52
2023-03-05T19:34:35.606Z,80.81
2023-03-05T19:39:38.746Z,81.03
2023-03-05T19:44:44.386Z,80.98
2023-03-05T19:49:46.312Z,80.90
2023-03-05T19:54:48.628Z,81.04
2023-03-05T19:59:54.587Z,81.13
2023-03-05T20:04:57.549Z,81.05
2023-03-05T20:10:00.106Z,81.38
2023-03-05T20:15:02.837Z,81.96
2023-03-05T20:20:06.215Z,81.80
2023-03-05T20:25:10.050Z,81.72
2023-03-05T20:30:14.560Z,81.88
2023-03-05T20:35:18.125Z,81.75
2023-03-05T20:40:19.989Z,82.04
2023-03-05T20:45:21.801Z,82.06
2023-03-05T20:50:23.815Z,82.26
2023-03-05T20:55:28.893Z,82.05
2023-03-05T21:00:31.561Z,82.15
2023-03-05T21:05:35.177Z,82.17
2023-03-05T21:10:38.423Z,82.66
2023-03-05T21:15:41.186Z,82.37
2023-03-05T21:20:43.114Z,82.15
2023-03-05T21:25:45.726Z,82.39
2023-03-05T21:30:51.910Z,82.55
2023-03-05T21:35:55.064Z,82.60
2023-03-05T21:40:58.848Z,82.73
2023-03-05T21:46:03.546Z,82.77
2023-03-05T21:51:22.971Z,82.74
2023-03-05T21:56:37.949Z,82.78
2023-03-05T22:01:40.198Z,83.11
2023-03-05T22:06:43.202Z,82.99
2023-03-05T22:11:45.922Z,82.88
2023-03-05T22:17:01.722Z,83.18
2023-03-05T22:22:04.413Z,83.45
2023-03-05T22:27:09.244Z,83.08
2023-03-05T22:32:11.271Z,83.20
2023-03-05T22:37:13.317Z,82.95
2023-03-05T22:42:16.451Z,82.96
2023-03-05T22:47:19.669Z,83.18
2023-03-05T22:52:24.801Z,83.57
2023-03-05T22:57:26.806Z,83.22
2023-03-05T23:02:29.263Z,83.26
2023-03-05T23:07:34.325Z,82.72
2023-03-05T23:12:40.254Z,82.91
2023-03-05T23:17:42.969Z,83.14
2023-03-05T23:22:45.847Z,82.90
2023-03-05T23:27:49.986Z,83.01
2023-03-05T23:32:59.667Z,83.24
2023-03-05T23:38:04.404Z,82.75
2023-03-05T23:43:06.793Z,83.10
2023-03-05T23:48:10.295Z,82.98
2023-03-05T23:53:17.405Z,83.28
2023-03-05T23:58:23.401Z,82.94
